Time;durP1;ratioP1;P1;durP2;ratioP2;P2;SDS_P1;SDS_P2;PMS_P1;PMS_P2;Temp;Humidity;BMP_temperature;BMP_pressure;BME280_temperature;BME280_humidity;BME280_pressure;Samples;Min_cycle;Max_cycle;Signal;HPM_P1;HPM_P2
2023/08/30 00:01:35;;;;;;;35.70;20.50;;;;;;;15.02;95.29;97781.48;226794;1269;22540;-72
2023/08/30 00:06:37;;;;;;;36.00;19.60;;;;;;;15.00;95.34;97771.67;226736;1272;22535;-71
2023/08/30 00:11:39;;;;;;;35.50;18.70;;;;;;;14.99;95.32;97768.13;226687;1272;22538;-72
2023/08/30 00:16:40;;;;;;;33.30;18.20;;;;;;;14.97;95.49;97747.48;226661;1267;22955;-71
2023/08/30 00:21:44;;;;;;;25.10;14.90;;;;;;;14.96;95.48;97730.64;226652;1269;22709;-72
2023/08/30 00:26:46;;;;;;;27.70;15.30;;;;;;;14.93;95.79;97733.89;226661;1272;22524;-73
2023/08/30 00:31:48;;;;;;;24.80;14.90;;;;;;;14.93;95.96;97734.31;226836;1274;22530;-73
2023/08/30 00:36:50;;;;;;;21.50;13.70;;;;;;;14.93;95.86;97732.50;226933;1273;22912;-72
2023/08/30 00:41:52;;;;;;;25.60;15.50;;;;;;;14.94;96.02;97736.94;226727;1272;22529;-72
2023/08/30 00:46:54;;;;;;;28.20;17.20;;;;;;;14.95;96.08;97743.86;226705;1272;22537;-73
2023/08/30 00:52:02;;;;;;;29.60;18.40;;;;;;;14.94;96.01;97746.02;226808;1272;23035;-73
2023/08/30 00:57:04;;;;;;;31.30;18.10;;;;;;;14.92;95.87;97750.90;226699;1270;22538;-73
2023/08/30 01:02:06;;;;;;;29.90;18.70;;;;;;;14.90;96.07;97752.46;226718;1270;22630;-72
2023/08/30 01:07:08;;;;;;;29.00;18.20;;;;;;;14.89;95.90;97746.10;226650;1272;22527;-72
2023/08/30 01:12:19;;;;;;;30.00;19.40;;;;;;;14.87;96.09;97744.00;226664;1266;24384;-73
2023/08/30 01:17:23;;;;;;;28.80;18.60;;;;;;;14.87;96.01;97737.02;226708;1256;24204;-73
2023/08/30 01:22:45;;;;;;;26.00;17.70;;;;;;;14.86;96.13;97718.48;226793;1272;22581;-73
2023/08/30 01:27:50;;;;;;;24.20;15.60;;;;;;;14.85;96.14;97715.66;226717;1269;22633;-73
2023/08/30 01:32:54;;;;;;;23.90;16.30;;;;;;;14.83;96.06;97723.31;226642;1273;22600;-73
2023/08/30 01:37:56;;;;;;;23.40;15.90;;;;;;;14.82;96.03;97723.19;226564;1270;120891;-73
2023/08/30 01:42:59;;;;;;;24.20;16.40;;;;;;;14.83;96.00;97727.66;226718;1269;22563;-73
2023/08/30 01:48:03;;;;;;;19.70;14.20;;;;;;;14.84;96.15;97725.13;226746;1272;22635;-73
2023/08/30 01:53:08;;;;;;;21.60;14.50;;;;;;;14.85;96.10;97730.46;226853;1270;22470;-73
2023/08/30 01:58:11;;;;;;;20.50;15.30;;;;;;;14.88;96.06;97726.19;226685;1273;22938;-73
2023/08/30 02:03:14;;;;;;;23.30;15.50;;;;;;;14.88;96.11;97718.21;226821;1272;22652;-74
2023/08/30 02:08:17;;;;;;;24.20;16.00;;;;;;;14.87;96.06;97713.56;226858;1271;22548;-73
2023/08/30 02:13:28;;;;;;;25.50;16.60;;;;;;;14.86;96.07;97719.93;226778;1272;22623;-73
2023/08/30 02:18:30;;;;;;;25.60;17.00;;;;;;;14.86;95.96;97721.36;226676;1272;22534;-73
2023/08/30 02:23:34;;;;;;;25.50;18.10;;;;;;;14.86;96.01;97725.09;226665;1273;22536;-73
2023/08/30 02:28:38;;;;;;;24.30;17.80;;;;;;;14.85;96.03;97720.56;226785;1270;22534;-73
2023/08/30 02:33:41;;;;;;;25.80;18.30;;;;;;;14.87;96.11;97719.84;226835;1273;22563;-73
2023/08/30 02:38:42;;;;;;;36.00;20.00;;;;;;;14.88;96.31;97723.53;226668;1271;22545;-73
2023/08/30 02:43:44;;;;;;;35.30;21.10;;;;;;;14.89;96.07;97727.80;226652;1272;22540;-73
2023/08/30 02:48:46;;;;;;;39.80;21.80;;;;;;;14.87;96.06;97719.20;226892;1273;22542;-74
2023/08/30 02:53:48;;;;;;;41.40;22.80;;;;;;;14.85;96.03;97720.77;226803;1272;22534;-73
2023/08/30 02:58:50;;;;;;;40.70;21.40;;;;;;;14.81;96.02;97720.19;226771;1271;22547;-73
2023/08/30 03:03:52;;;;;;;43.50;22.80;;;;;;;14.77;95.95;97720.97;226662;1269;22637;-73
2023/08/30 03:08:54;;;;;;;34.00;18.90;;;;;;;14.74;96.20;97719.64;226663;1272;22531;-73
2023/08/30 03:13:57;;;;;;;30.90;17.00;;;;;;;14.68;96.09;97720.81;226864;1272;22527;-73
2023/08/30 03:19:00;;;;;;;25.10;15.20;;;;;;;14.64;96.23;97717.93;226768;1272;22518;-74
2023/08/30 03:24:04;;;;;;;19.90;12.50;;;;;;;14.60;96.19;97709.51;226748;1273;25304;-73
2023/08/30 03:29:06;;;;;;;17.90;12.20;;;;;;;14.55;96.26;97711.13;226810;1270;22541;-74
2023/08/30 03:34:08;;;;;;;16.90;10.80;;;;;;;14.52;96.27;97704.34;226648;1272;22610;-73
2023/08/30 03:39:10;;;;;;;13.90;9.20;;;;;;;14.52;96.65;97700.02;226737;1273;22526;-74
2023/08/30 03:44:12;;;;;;;10.10;6.70;;;;;;;14.52;96.70;97698.75;226807;1272;22539;-72
2023/08/30 03:49:14;;;;;;;7.50;5.60;;;;;;;14.52;96.67;97702.84;226668;1273;22543;-74
2023/08/30 03:54:17;;;;;;;7.00;4.60;;;;;;;14.51;96.64;97709.11;226595;1269;24275;-74
2023/08/30 03:59:22;;;;;;;3.90;3.40;;;;;;;14.50;96.42;97720.56;226613;1273;22576;-73
2023/08/30 04:04:27;;;;;;;4.50;3.60;;;;;;;14.51;96.53;97731.15;226843;1270;22638;-72
2023/08/30 04:09:29;;;;;;;3.70;3.30;;;;;;;14.52;96.52;97732.35;226787;1269;22537;-73
2023/08/30 04:14:31;;;;;;;3.50;3.20;;;;;;;14.54;96.68;97727.73;226746;1272;25371;-72
2023/08/30 04:19:33;;;;;;;3.60;3.20;;;;;;;14.55;96.59;97728.39;226794;1272;22721;-74
2023/08/30 04:24:35;;;;;;;3.70;3.00;;;;;;;14.54;96.50;97723.50;226930;1270;22540;-73
2023/08/30 04:29:37;;;;;;;3.40;2.90;;;;;;;14.53;96.45;97725.14;226754;1270;22607;-72
2023/08/30 04:34:39;;;;;;;4.70;3.00;;;;;;;14.52;96.37;97723.20;226664;1267;22534;-73
2023/08/30 04:39:41;;;;;;;2.60;2.40;;;;;;;14.52;96.67;97721.35;226785;1270;22995;-74
2023/08/30 04:44:43;;;;;;;3.20;2.90;;;;;;;14.54;96.63;97735.30;226864;1270;22553;-74
2023/08/30 04:49:50;;;;;;;2.20;1.90;;;;;;;14.55;96.57;97734.83;226846;1270;22534;-73
2023/08/30 04:54:53;;;;;;;2.80;2.30;;;;;;;14.56;96.42;97734.05;226996;1264;22547;-72
2023/08/30 04:59:57;;;;;;;2.80;2.40;;;;;;;14.57;96.48;97732.95;226967;1272;25308;-73
2023/08/30 05:04:59;;;;;;;6.10;3.10;;;;;;;14.60;96.76;97732.58;226684;1270;22534;-74
2023/08/30 05:10:02;;;;;;;4.20;3.50;;;;;;;14.60;96.30;97735.35;226677;1272;25259;-73
2023/08/30 05:15:05;;;;;;;4.60;4.20;;;;;;;14.61;96.57;97743.51;226647;1273;22560;-73
2023/08/30 05:20:09;;;;;;;4.90;3.90;;;;;;;14.62;96.42;97745.08;226755;1270;22562;-74
2023/08/30 05:25:11;;;;;;;5.20;4.40;;;;;;;14.63;96.47;97744.98;226858;1272;22513;-73
2023/08/30 05:30:13;;;;;;;7.30;4.10;;;;;;;14.65;96.61;97738.79;226671;1273;25258;-73
2023/08/30 05:35:15;;;;;;;5.80;4.20;;;;;;;14.66;96.46;97731.84;226864;1269;22522;-74
2023/08/30 05:40:44;;;;;;;6.90;5.00;;;;;;;14.69;96.60;97732.37;226695;1266;22543;-74
2023/08/30 05:45:47;;;;;;;9.80;5.80;;;;;;;14.70;96.36;97727.33;226569;1267;22559;-73
2023/08/30 05:50:49;;;;;;;9.00;6.50;;;;;;;14.71;96.32;97735.21;226680;1270;22537;-75
2023/08/30 05:55:51;;;;;;;8.90;6.10;;;;;;;14.71;96.37;97743.25;226494;1273;22649;-75
2023/08/30 06:00:53;;;;;;;10.00;6.50;;;;;;;14.74;96.31;97744.80;226467;1267;22896;-77
2023/08/30 06:05:55;;;;;;;10.10;6.00;;;;;;;14.78;96.52;97749.02;226500;1254;22530;-74
2023/08/30 06:10:57;;;;;;;8.10;5.40;;;;;;;14.82;96.40;97752.44;226462;1253;22544;-74
2023/08/30 06:15:59;;;;;;;7.80;4.50;;;;;;;14.84;96.52;97751.39;226353;1250;22567;-73
2023/08/30 06:21:01;;;;;;;9.10;4.90;;;;;;;14.85;96.16;97756.25;226355;1251;22546;-74
2023/08/30 06:26:03;;;;;;;7.10;4.90;;;;;;;14.83;96.19;97757.40;226460;1260;22531;-73
2023/08/30 06:31:05;;;;;;;8.00;6.20;;;;;;;14.81;96.26;97771.00;226185;1254;22542;-73
2023/08/30 06:36:07;;;;;;;8.60;5.80;;;;;;;14.83;96.08;97773.78;226121;1254;25327;-74
2023/08/30 06:41:09;;;;;;;7.20;5.30;;;;;;;14.88;96.36;97769.32;226184;1254;22593;-74
2023/08/30 06:46:11;;;;;;;5.70;4.30;;;;;;;14.91;96.14;97767.11;226436;1251;22531;-74
2023/08/30 06:51:13;;;;;;;7.40;4.60;;;;;;;14.95;96.25;97763.13;226368;1254;22538;-75
2023/08/30 06:56:15;;;;;;;5.20;4.50;;;;;;;15.07;96.28;97768.81;226343;1251;22545;-74
2023/08/30 07:01:17;;;;;;;4.70;4.10;;;;;;;15.19;96.19;97782.45;226322;1260;24339;-75
2023/08/30 07:06:19;;;;;;;5.30;4.70;;;;;;;15.25;95.92;97781.02;226542;1250;22955;-75
2023/08/30 07:11:23;;;;;;;4.10;3.70;;;;;;;15.28;95.81;97791.08;226456;1254;22539;-74
2023/08/30 07:16:35;;;;;;;3.90;3.50;;;;;;;15.29;95.54;97804.27;226507;1266;22549;-74
2023/08/30 07:21:38;;;;;;;3.90;3.50;;;;;;;15.28;95.54;97807.14;226478;1261;22604;-76
2023/08/30 07:26:41;;;;;;;3.90;3.50;;;;;;;15.28;95.80;97814.34;226489;1262;22547;-73
2023/08/30 07:31:43;;;;;;;3.60;3.30;;;;;;;15.28;95.66;97815.46;226433;1257;22569;-76
2023/08/30 07:36:45;;;;;;;3.30;3.00;;;;;;;15.28;95.80;97812.63;226392;1250;22537;-73
2023/08/30 07:41:49;;;;;;;2.70;2.50;;;;;;;15.33;95.82;97816.70;226399;1266;26535;-74
2023/08/30 07:46:51;;;;;;;3.00;2.80;;;;;;;15.37;95.68;97816.70;226463;1250;22544;-74
2023/08/30 07:51:53;;;;;;;3.90;3.50;;;;;;;15.41;95.72;97813.58;226438;1254;22962;-75
2023/08/30 07:56:54;;;;;;;8.60;4.30;;;;;;;15.47;95.63;97814.84;226318;1266;22537;-71
2023/08/30 08:01:56;;;;;;;3.80;3.10;;;;;;;15.52;95.66;97815.99;226244;1266;22540;-70
2023/08/30 08:06:58;;;;;;;3.10;2.80;;;;;;;15.58;95.46;97814.45;225637;1253;26165;-77
2023/08/30 08:12:04;;;;;;;3.30;2.50;;;;;;;15.69;95.35;97818.55;225729;1269;22558;-81
2023/08/30 08:17:06;;;;;;;2.50;2.30;;;;;;;15.76;95.21;97819.71;225771;1253;24250;-78
2023/08/30 08:22:08;;;;;;;2.00;1.80;;;;;;;15.81;94.88;97820.98;225757;1266;22739;-77
2023/08/30 08:27:12;;;;;;;1.40;1.30;;;;;;;15.84;94.74;97824.17;225728;1272;22988;-75
2023/08/30 08:32:16;;;;;;;1.30;1.20;;;;;;;15.87;94.30;97828.68;225664;1253;25337;-76
2023/08/30 08:37:18;;;;;;;1.20;1.00;;;;;;;15.97;94.46;97832.80;225692;1268;22529;-77
2023/08/30 08:42:21;;;;;;;1.50;1.40;;;;;;;16.16;94.31;97836.42;225708;1266;22547;-75
2023/08/30 08:47:24;;;;;;;1.40;1.30;;;;;;;16.35;93.80;97841.98;228708;1254;22810;-75
2023/08/30 08:52:26;;;;;;;1.40;1.30;;;;;;;16.48;93.58;97839.27;228698;1266;22086;-74
2023/08/30 08:57:38;;;;;;;2.90;1.60;;;;;;;16.62;93.38;97846.06;228698;1266;22155;-74
2023/08/30 09:02:41;;;;;;;1.80;1.40;;;;;;;16.67;92.69;97848.31;228634;1269;22354;-74
2023/08/30 09:07:45;;;;;;;1.90;1.50;;;;;;;16.55;92.33;97853.91;228775;1266;22311;-74
2023/08/30 09:12:47;;;;;;;1.60;1.50;;;;;;;16.40;92.27;97857.20;228761;1272;22098;-75
2023/08/30 09:17:49;;;;;;;1.80;1.70;;;;;;;16.25;92.29;97855.30;228808;1266;22324;-73
2023/08/30 09:22:51;;;;;;;1.20;1.10;;;;;;;16.24;92.31;97854.33;226412;1266;22542;-77
2023/08/30 09:28:00;;;;;;;1.50;1.40;;;;;;;16.25;92.27;97855.24;226419;1266;22576;-74
2023/08/30 09:33:03;;;;;;;1.30;1.20;;;;;;;16.26;92.29;97856.54;226581;1266;22538;-74
2023/08/30 09:38:05;;;;;;;0.90;0.90;;;;;;;16.26;92.31;97861.30;226461;1260;23223;-75
2023/08/30 09:43:07;;;;;;;2.00;1.30;;;;;;;16.25;92.18;97862.13;226496;1250;25888;-75
2023/08/30 09:48:14;;;;;;;1.10;1.10;;;;;;;16.26;91.95;97860.81;226338;1254;22547;-77
2023/08/30 09:53:19;;;;;;;0.90;0.90;;;;;;;16.33;91.98;97859.02;226270;1266;22538;-76
2023/08/30 09:58:23;;;;;;;0.50;0.50;;;;;;;16.42;92.11;97856.48;226258;1264;22649;-77
2023/08/30 10:03:25;;;;;;;0.50;0.50;;;;;;;16.47;91.65;97858.73;226783;1266;22886;-75
2023/08/30 10:08:34;;;;;;;0.50;0.50;;;;;;;16.54;91.32;97854.38;226296;1254;22537;-76
2023/08/30 10:13:42;;;;;;;0.40;0.40;;;;;;;16.74;91.38;97854.00;226475;1269;23364;-77
2023/08/30 10:25:32;;;;;;;0.50;0.50;;;;;;;17.33;91.00;97854.95;226452;1269;22552;-77
2023/08/30 10:38:13;;;;;;;0.90;0.50;;;;;;;17.60;89.44;97850.85;225928;1275;25370;-75
2023/08/30 10:44:56;;;;;;;1.50;1.30;;;;;;;17.45;89.10;97855.11;225718;1263;22564;-75
2023/08/30 10:50:55;;;;;;;1.60;1.50;;;;;;;17.24;89.38;97861.66;224318;1277;22556;-77
2023/08/30 10:56:35;;;;;;;2.00;1.90;;;;;;;17.11;89.57;97863.19;224212;1280;22541;-75
2023/08/30 11:02:01;;;;;;;1.80;1.70;;;;;;;17.02;89.65;97863.44;223741;1283;23777;-73
2023/08/30 11:07:04;;;;;;;2.10;2.00;;;;;;;16.99;89.64;97861.64;224111;1287;22563;-73
2023/08/30 11:12:06;;;;;;;2.00;1.90;;;;;;;17.02;89.72;97861.02;224325;1277;24225;-74
2023/08/30 11:17:11;;;;;;;2.70;2.30;;;;;;;17.16;89.80;97854.53;224301;1268;23070;-72
2023/08/30 11:22:13;;;;;;;2.20;2.10;;;;;;;17.39;89.69;97853.13;224487;1286;22552;-71
2023/08/30 11:27:18;;;;;;;2.80;2.60;;;;;;;17.45;89.45;97852.66;224827;1284;22542;-73
2023/08/30 11:32:20;;;;;;;2.80;2.60;;;;;;;17.43;89.07;97844.94;224987;1281;22573;-72
2023/08/30 11:37:22;;;;;;;3.70;3.40;;;;;;;17.33;88.76;97840.87;225047;1280;25220;-73
2023/08/30 11:42:25;;;;;;;4.60;4.30;;;;;;;17.32;89.05;97843.58;225316;1271;22544;-74
2023/08/30 11:47:27;;;;;;;5.00;4.60;;;;;;;17.34;88.76;97839.76;225607;1265;22532;-73
2023/08/30 11:52:31;;;;;;;4.80;4.50;;;;;;;17.33;88.71;97842.48;225748;1264;22676;-77
2023/08/30 11:57:34;;;;;;;6.00;5.60;;;;;;;17.33;88.19;97846.36;225596;1272;22530;-73
2023/08/30 12:02:36;;;;;;;7.10;6.50;;;;;;;17.30;88.03;97854.08;225556;1259;25266;-72
2023/08/30 12:07:40;;;;;;;7.00;6.50;;;;;;;17.25;88.00;97860.12;225450;1280;22531;-75
2023/08/30 12:12:45;;;;;;;9.10;8.30;;;;;;;17.22;88.20;97860.15;225728;1280;22660;-73
2023/08/30 12:17:47;;;;;;;8.90;8.20;;;;;;;17.19;88.11;97857.35;225278;1280;22525;-73
2023/08/30 12:22:51;;;;;;;7.60;7.00;;;;;;;17.19;88.18;97860.61;225715;1277;22536;-73
2023/08/30 12:27:53;;;;;;;6.80;6.10;;;;;;;17.25;87.99;97854.34;225606;1265;25322;-74
2023/08/30 12:33:03;;;;;;;6.60;6.00;;;;;;;17.34;88.11;97851.87;225547;1276;22547;-74
2023/08/30 12:38:06;;;;;;;7.50;6.90;;;;;;;17.45;87.95;97853.73;225339;1262;22537;-74
2023/08/30 12:43:08;;;;;;;7.60;7.00;;;;;;;17.48;87.74;97854.71;225309;1257;22543;-75
2023/08/30 12:48:12;;;;;;;9.20;8.30;;;;;;;17.48;87.65;97852.69;225318;1263;22577;-74
2023/08/30 12:53:17;;;;;;;8.20;7.60;;;;;;;17.43;87.40;97855.58;225458;1278;22584;-75
2023/08/30 12:58:19;;;;;;;8.50;7.80;;;;;;;17.33;87.09;97854.06;225469;1262;23072;-75
2023/08/30 13:03:21;;;;;;;8.80;8.00;;;;;;;17.31;87.39;97853.71;225573;1278;22937;-79
2023/08/30 13:08:23;;;;;;;9.00;8.20;;;;;;;17.34;87.51;97856.36;225471;1276;22546;-76
2023/08/30 13:13:25;;;;;;;8.40;7.60;;;;;;;17.32;87.43;97867.29;225441;1262;22723;-76
2023/08/30 13:18:27;;;;;;;7.40;6.80;;;;;;;17.30;87.38;97871.59;225444;1259;22562;-76
2023/08/30 13:23:33;;;;;;;7.30;6.60;;;;;;;17.26;87.54;97872.78;225568;1262;22546;-77
2023/08/30 13:28:35;;;;;;;5.20;4.80;;;;;;;17.19;87.72;97870.59;225387;1259;22637;-79
2023/08/30 13:33:37;;;;;;;5.10;4.70;;;;;;;17.09;87.67;97869.09;225086;1262;24394;-76
2023/08/30 13:38:39;;;;;;;6.10;5.60;;;;;;;16.97;87.69;97864.34;224980;1270;195517;-76
2023/08/30 13:43:44;;;;;;;6.40;5.90;;;;;;;16.83;87.72;97865.09;225520;1270;22564;-76
2023/08/30 13:48:47;;;;;;;7.40;6.70;;;;;;;16.72;88.10;97871.60;225084;1265;22579;-78
2023/08/30 13:53:50;;;;;;;7.40;6.70;;;;;;;16.67;88.44;97875.20;225370;1268;25875;-74
2023/08/30 13:58:52;;;;;;;9.10;7.40;;;;;;;16.60;88.35;97873.65;225362;1259;22614;-75
2023/08/30 14:03:54;;;;;;;18.30;14.60;;;;;;;16.54;88.83;97882.34;224993;1279;22543;-75
2023/08/30 14:08:56;;;;;;;14.20;11.60;;;;;;;16.49;88.71;97878.90;225283;1274;22559;-74
2023/08/30 14:13:58;;;;;;;15.50;11.30;;;;;;;16.44;89.03;97876.61;225493;1275;22536;-74
2023/08/30 14:19:05;;;;;;;31.00;13.10;;;;;;;16.39;89.18;97879.27;225720;1280;22617;-74
2023/08/30 14:24:07;;;;;;;16.80;11.00;;;;;;;16.37;89.32;97881.31;225801;1274;22669;-78
2023/08/30 14:29:09;;;;;;;16.70;12.10;;;;;;;16.37;89.48;97890.27;225594;1276;22603;-75
2023/08/30 14:34:11;;;;;;;16.50;11.60;;;;;;;16.36;89.82;97892.11;225481;1281;22682;-75
2023/08/30 14:39:13;;;;;;;12.00;9.60;;;;;;;16.33;89.72;97893.69;225528;1278;22569;-74
2023/08/30 14:44:15;;;;;;;11.00;8.40;;;;;;;16.30;89.82;97890.67;225437;1275;22639;-74
2023/08/30 14:49:17;;;;;;;9.30;8.10;;;;;;;16.29;89.68;97885.42;226007;1278;24234;-75
2023/08/30 14:54:18;;;;;;;10.30;8.40;;;;;;;16.28;89.54;97888.36;225833;1278;22590;-76
2023/08/30 14:59:21;;;;;;;9.30;8.20;;;;;;;16.28;89.89;97892.88;225865;1278;22608;-76
2023/08/30 15:04:23;;;;;;;10.30;9.20;;;;;;;16.28;89.94;97895.59;225449;1277;24376;-85
2023/08/30 15:09:30;;;;;;;9.50;8.50;;;;;;;16.28;90.23;97899.77;225812;1279;22563;-78
2023/08/30 15:14:34;;;;;;;15.50;11.60;;;;;;;16.32;90.13;97898.58;225737;1277;22611;-78
2023/08/30 15:19:36;;;;;;;13.20;9.30;;;;;;;16.36;90.24;97902.77;225819;1278;22574;-76
2023/08/30 15:24:38;;;;;;;12.20;8.90;;;;;;;16.33;90.29;97898.38;225582;1275;24474;-77
2023/08/30 15:29:40;;;;;;;7.10;6.40;;;;;;;16.29;89.85;97902.06;225742;1278;22555;-78
2023/08/30 15:34:43;;;;;;;10.20;8.40;;;;;;;16.27;90.06;97900.12;225913;1278;22574;-76
2023/08/30 15:39:45;;;;;;;13.70;8.70;;;;;;;16.29;89.97;97903.29;225758;1278;22537;-76
2023/08/30 15:44:47;;;;;;;11.00;8.40;;;;;;;16.30;89.68;97907.14;225564;1274;25383;-75
2023/08/30 15:49:49;;;;;;;10.20;7.90;;;;;;;16.29;89.61;97906.97;225580;1278;22632;-75
2023/08/30 15:54:52;;;;;;;11.70;8.80;;;;;;;16.32;89.81;97907.54;225831;1275;22556;-78
2023/08/30 15:59:54;;;;;;;9.90;8.30;;;;;;;16.34;89.76;97911.71;225747;1278;22636;-77
2023/08/30 16:04:56;;;;;;;10.80;8.40;;;;;;;16.37;89.94;97912.88;225622;1262;22559;-78
2023/08/30 16:09:58;;;;;;;7.30;6.50;;;;;;;16.42;89.85;97911.02;225715;1259;22573;-75
2023/08/30 16:15:03;;;;;;;7.10;6.30;;;;;;;16.39;89.43;97911.63;225772;1280;22535;-74
2023/08/30 16:20:05;;;;;;;7.40;5.80;;;;;;;16.32;89.20;97919.05;225627;1278;25397;-75
2023/08/30 16:25:08;;;;;;;7.10;5.60;;;;;;;16.27;89.30;97922.83;225595;1275;25343;-74
2023/08/30 16:30:11;;;;;;;6.70;6.00;;;;;;;16.20;89.24;97927.88;225644;1275;22525;-76
2023/08/30 16:35:13;;;;;;;6.50;5.70;;;;;;;16.14;89.47;97932.30;225612;1275;22546;-76
2023/08/30 16:40:15;;;;;;;5.90;5.40;;;;;;;16.10;89.39;97937.45;225637;1278;24236;-76
2023/08/30 16:45:18;;;;;;;5.40;4.90;;;;;;;16.05;89.58;97941.09;225590;1278;22668;-76
2023/08/30 16:50:20;;;;;;;5.60;5.00;;;;;;;16.00;89.40;97942.42;225588;1280;22592;-78
2023/08/30 16:55:22;;;;;;;6.60;5.30;;;;;;;15.94;89.57;97944.33;225869;1278;22669;-75
2023/08/30 17:00:24;;;;;;;6.10;5.50;;;;;;;15.90;89.61;97948.85;225632;1278;22549;-76
2023/08/30 17:05:26;;;;;;;8.60;6.50;;;;;;;15.84;89.62;97941.21;225628;1278;25229;-75
2023/08/30 17:10:29;;;;;;;9.90;7.50;;;;;;;15.81;90.02;97950.75;225648;1281;24942;-75
2023/08/30 17:15:31;;;;;;;9.50;8.10;;;;;;;15.81;90.16;97948.09;225611;1281;22550;-76
2023/08/30 17:20:34;;;;;;;10.40;8.30;;;;;;;15.79;90.05;97953.21;225688;1278;22586;-75
2023/08/30 17:25:36;;;;;;;8.20;7.30;;;;;;;15.75;90.00;97952.39;225973;1278;23216;-76
2023/08/30 17:30:38;;;;;;;7.90;6.80;;;;;;;15.71;90.11;97955.55;225939;1278;25343;-75
2023/08/30 17:35:41;;;;;;;10.50;7.90;;;;;;;15.67;90.14;97961.27;225803;1278;22628;-76
2023/08/30 17:40:43;;;;;;;7.10;6.40;;;;;;;15.60;90.12;97959.86;225616;1280;22548;-77
2023/08/30 17:45:45;;;;;;;6.80;6.10;;;;;;;15.53;90.25;97960.32;225650;1278;22587;-75
2023/08/30 17:50:47;;;;;;;8.20;7.00;;;;;;;15.45;90.35;97957.08;225703;1278;22551;-76
2023/08/30 17:55:54;;;;;;;9.20;7.90;;;;;;;15.42;90.74;97953.45;225626;1275;22861;-75
2023/08/30 18:00:59;;;;;;;9.00;8.10;;;;;;;15.38;90.80;97955.78;225663;1278;22596;-76
2023/08/30 18:06:04;;;;;;;10.10;8.50;;;;;;;15.32;90.77;97956.77;225684;1278;22527;-76
2023/08/30 18:11:16;;;;;;;11.50;10.00;;;;;;;15.26;90.80;97962.48;225625;1278;22535;-76
2023/08/30 18:16:20;;;;;;;10.20;9.20;;;;;;;15.23;91.28;97968.70;225652;1278;22547;-77
2023/08/30 18:21:23;;;;;;;12.80;10.40;;;;;;;15.21;91.51;97964.77;225639;1278;22535;-76
2023/08/30 18:26:25;;;;;;;10.30;9.40;;;;;;;15.18;91.45;97961.00;225604;1279;22657;-75
2023/08/30 18:31:27;;;;;;;12.70;10.80;;;;;;;15.16;91.64;97964.52;225646;1278;22566;-76
2023/08/30 18:36:29;;;;;;;12.40;11.10;;;;;;;15.14;91.84;97982.58;225677;1275;22567;-76
2023/08/30 18:41:31;;;;;;;12.60;11.30;;;;;;;15.13;91.74;97990.55;225919;1278;22544;-75
2023/08/30 18:46:33;;;;;;;15.90;12.30;;;;;;;15.13;91.99;97996.52;225901;1278;22567;-74
2023/08/30 18:51:36;;;;;;;13.50;12.10;;;;;;;15.14;92.03;97998.48;225884;1278;22551;-75
2023/08/30 18:56:38;;;;;;;12.30;11.00;;;;;;;15.16;92.26;97994.86;225870;1279;25013;-75
2023/08/30 19:01:41;;;;;;;12.20;10.90;;;;;;;15.14;92.07;97993.44;225876;1278;22543;-76
2023/08/30 19:06:44;;;;;;;12.20;11.00;;;;;;;15.11;92.02;97985.89;225762;1278;22538;-76
2023/08/30 19:11:46;;;;;;;13.80;11.80;;;;;;;15.09;92.20;97980.89;225800;1262;22547;-75
2023/08/30 19:16:48;;;;;;;12.30;10.70;;;;;;;15.07;92.22;97985.86;225877;1278;22656;-75
2023/08/30 19:21:52;;;;;;;15.90;12.60;;;;;;;15.03;92.13;97990.50;225890;1280;23202;-76
2023/08/30 19:26:54;;;;;;;14.00;12.60;;;;;;;14.99;92.00;97987.81;225818;1271;22639;-76
2023/08/30 19:31:59;;;;;;;13.40;12.00;;;;;;;14.95;92.08;97999.76;225879;1279;22718;-75
2023/08/30 19:37:03;;;;;;;14.70;12.60;;;;;;;14.92;92.42;98000.50;225889;1278;23008;-76
2023/08/30 19:42:05;;;;;;;15.40;13.20;;;;;;;14.94;92.95;97996.09;225813;1262;22551;-75
2023/08/30 19:47:07;;;;;;;17.60;12.70;;;;;;;14.98;92.75;97991.52;225618;1278;22616;-76
2023/08/30 19:52:09;;;;;;;14.20;11.70;;;;;;;14.98;92.93;97995.48;225530;1281;22557;-77
2023/08/30 19:57:12;;;;;;;15.10;12.80;;;;;;;14.97;92.69;97987.94;225665;1270;22554;-77
2023/08/30 20:02:14;;;;;;;12.60;11.20;;;;;;;14.94;92.68;97985.98;225639;1278;22553;-75
2023/08/30 20:07:16;;;;;;;12.30;10.90;;;;;;;14.91;92.58;97989.03;225625;1278;22691;-75
2023/08/30 20:12:18;;;;;;;13.40;11.40;;;;;;;14.88;92.71;97984.83;225610;1278;22557;-76
2023/08/30 20:17:20;;;;;;;14.20;11.90;;;;;;;14.87;92.98;97997.40;225653;1281;22552;-76
2023/08/30 20:22:22;;;;;;;13.60;11.90;;;;;;;14.84;92.86;98006.34;225655;1281;22898;-75
2023/08/30 20:27:24;;;;;;;13.60;11.10;;;;;;;14.80;92.77;98010.16;225585;1258;22545;-75
2023/08/30 20:32:26;;;;;;;12.10;10.00;;;;;;;14.76;92.82;98012.61;225889;1271;22539;-76
2023/08/30 20:37:32;;;;;;;11.80;10.70;;;;;;;14.70;92.76;98013.39;225881;1278;22643;-76
2023/08/30 20:42:35;;;;;;;12.20;11.00;;;;;;;14.65;92.71;98011.27;225917;1279;22564;-76
2023/08/30 20:47:47;;;;;;;13.00;11.70;;;;;;;14.59;92.79;98017.38;225868;1279;22543;-77
2023/08/30 20:52:49;;;;;;;12.60;11.30;;;;;;;14.56;92.99;98016.08;225927;1278;22546;-76
2023/08/30 20:57:51;;;;;;;12.60;11.30;;;;;;;14.55;93.10;98018.35;225831;1278;22573;-77
2023/08/30 21:02:53;;;;;;;14.30;12.40;;;;;;;14.54;93.19;98018.56;225800;1280;22539;-76
2023/08/30 21:07:55;;;;;;;13.60;12.20;;;;;;;14.56;93.29;98020.65;225951;1265;22540;-75
2023/08/30 21:12:57;;;;;;;13.80;12.30;;;;;;;14.56;93.44;98021.67;225968;1279;22569;-77
2023/08/30 21:18:02;;;;;;;13.00;11.70;;;;;;;14.55;93.29;98023.45;225901;1278;22564;-75
2023/08/30 21:23:06;;;;;;;14.10;12.20;;;;;;;14.54;93.27;98019.15;225875;1278;22563;-75
2023/08/30 21:28:09;;;;;;;13.30;11.90;;;;;;;14.54;93.26;98017.71;225925;1278;22543;-77
2023/08/30 21:33:15;;;;;;;13.30;11.90;;;;;;;14.54;93.62;98018.84;225919;1280;22574;-76
2023/08/30 21:38:17;;;;;;;14.20;12.50;;;;;;;14.52;93.43;98025.70;225909;1278;22579;-77
2023/08/30 21:43:18;;;;;;;12.00;10.70;;;;;;;14.51;93.48;98033.91;225984;1278;22590;-75
2023/08/30 21:48:21;;;;;;;13.10;11.60;;;;;;;14.47;93.43;98032.59;225934;1279;22559;-75
2023/08/30 21:53:24;;;;;;;13.60;12.00;;;;;;;14.45;93.47;98037.33;225966;1279;25252;-75
2023/08/30 21:58:26;;;;;;;13.90;12.50;;;;;;;14.42;93.48;98033.61;225798;1281;22566;-75
2023/08/30 22:03:28;;;;;;;11.80;10.70;;;;;;;14.41;93.55;98037.02;225724;1281;22676;-76
2023/08/30 22:08:30;;;;;;;13.30;12.00;;;;;;;14.39;93.73;98038.04;225751;1276;22594;-75
2023/08/30 22:13:32;;;;;;;12.90;11.40;;;;;;;14.36;93.89;98041.73;225818;1280;23133;-76
2023/08/30 22:18:34;;;;;;;13.10;11.80;;;;;;;14.33;93.50;98038.73;225844;1279;22664;-75
2023/08/30 22:23:35;;;;;;;13.80;12.50;;;;;;;14.31;93.87;98035.98;225921;1279;24342;-76
2023/08/30 22:28:38;;;;;;;13.20;11.90;;;;;;;14.32;93.99;98033.44;225872;1279;22731;-75
2023/08/30 22:33:40;;;;;;;14.30;12.90;;;;;;;14.32;94.31;98038.18;225902;1281;22600;-75
2023/08/30 22:38:42;;;;;;;13.30;12.00;;;;;;;14.32;94.19;98040.95;225901;1279;22691;-75
2023/08/30 22:43:43;;;;;;;13.60;12.30;;;;;;;14.32;93.84;98047.21;225945;1278;22546;-77
2023/08/30 22:48:46;;;;;;;13.10;11.80;;;;;;;14.32;93.74;98049.75;225912;1280;22546;-76
2023/08/30 22:53:47;;;;;;;13.40;11.90;;;;;;;14.32;94.02;98054.00;225830;1280;22648;-75
2023/08/30 22:58:50;;;;;;;13.10;11.80;;;;;;;14.33;94.24;98056.48;225844;1276;22543;-75
2023/08/30 23:03:52;;;;;;;13.30;11.90;;;;;;;14.32;94.14;98057.27;225892;1275;22558;-74
2023/08/30 23:08:58;;;;;;;12.70;11.40;;;;;;;14.34;93.95;98065.59;225904;1281;22572;-76
2023/08/30 23:14:01;;;;;;;12.50;11.30;;;;;;;14.33;94.14;98066.90;225880;1277;24831;-75
2023/08/30 23:19:03;;;;;;;12.50;11.30;;;;;;;14.31;94.04;98068.13;225875;1279;22546;-75
2023/08/30 23:24:05;;;;;;;11.60;10.40;;;;;;;14.31;94.20;98063.33;225858;1279;22559;-75
2023/08/30 23:29:07;;;;;;;12.90;10.90;;;;;;;14.30;94.09;98057.88;225889;1273;22745;-76